createdAt,value
2023-03-27T00:00:00.118Z,99.9
2023-03-27T00:05:00.124Z,99.9
2023-03-27T00:10:00.130Z,99.9
2023-03-27T00:15:00.206Z,99.9
2023-03-27T00:20:00.119Z,99.9
2023-03-27T00:25:00.152Z,99.9
2023-03-27T00:30:00.193Z,99.9
2023-03-27T00:35:00.128Z,99.9
2023-03-27T00:40:00.117Z,99.9
2023-03-27T00:45:00.138Z,99.9
2023-03-27T00:50:00.159Z,99.9
2023-03-27T00:55:00.131Z,99.9
2023-03-27T01:00:00.190Z,99.9
2023-03-27T01:05:00.134Z,99.9
2023-03-27T01:10:00.120Z,99.9
2023-03-27T01:15:00.103Z,99.9
2023-03-27T01:20:00.120Z,99.9
2023-03-27T01:25:00.121Z,99.9
2023-03-27T01:30:00.109Z,99.9
2023-03-27T01:35:01.415Z,99.9
2023-03-27T01:40:00.125Z,99.9
2023-03-27T01:45:00.130Z,99.9
2023-03-27T01:50:00.129Z,99.9
2023-03-27T01:55:00.134Z,99.9
2023-03-27T02:00:17.763Z,99.9
2023-03-27T02:05:00.152Z,99.9
2023-03-27T02:10:00.115Z,99.9
2023-03-27T02:15:22.775Z,99.9
2023-03-27T02:20:00.133Z,99.9
2023-03-27T02:25:00.158Z,99.9
2023-03-27T02:30:00.131Z,99.9
2023-03-27T02:35:00.151Z,99.9
2023-03-27T02:40:00.132Z,99.9
2023-03-27T02:45:00.148Z,99.9
2023-03-27T02:50:00.159Z,99.9
2023-03-27T02:55:00.129Z,99.9
2023-03-27T03:00:00.165Z,99.9
2023-03-27T03:05:01.326Z,99.9
2023-03-27T03:10:00.130Z,99.9
2023-03-27T03:15:00.128Z,99.9
2023-03-27T03:20:00.132Z,99.9
2023-03-27T03:25:00.158Z,99.9
2023-03-27T03:30:00.128Z,99.9
2023-03-27T03:35:00.122Z,99.9
2023-03-27T03:40:00.167Z,99.9
2023-03-27T03:45:00.119Z,99.9
2023-03-27T03:50:00.117Z,99.9
2023-03-27T03:55:00.119Z,99.9
2023-03-27T04:00:00.164Z,99.9
2023-03-27T04:05:00.187Z,99.9
2023-03-27T04:10:00.119Z,99.9
2023-03-27T04:15:00.120Z,99.9
2023-03-27T04:20:00.136Z,99.9
2023-03-27T04:25:00.135Z,99.9
2023-03-27T04:30:00.132Z,99.9
2023-03-27T04:35:00.103Z,99.9
2023-03-27T04:40:00.148Z,99.9
2023-03-27T04:45:00.139Z,99.9
2023-03-27T04:50:00.185Z,99.9
2023-03-27T04:55:00.128Z,99.9
2023-03-27T05:00:00.193Z,99.9
2023-03-27T05:05:00.155Z,99.9
2023-03-27T05:10:00.109Z,99.9
2023-03-27T05:15:00.119Z,99.9
2023-03-27T05:20:00.111Z,99.9
2023-03-27T05:25:00.114Z,99.9
2023-03-27T05:30:00.175Z,99.9
2023-03-27T05:35:00.137Z,99.9
2023-03-27T05:40:00.114Z,99.9
2023-03-27T05:45:00.151Z,99.9
2023-03-27T05:50:00.133Z,99.9
2023-03-27T05:55:00.121Z,99.9
2023-03-27T06:00:00.122Z,99.9
2023-03-27T06:05:00.145Z,99.9
2023-03-27T06:10:00.133Z,99.9
2023-03-27T06:15:00.114Z,99.9
2023-03-27T06:20:00.136Z,99.9
2023-03-27T06:25:00.138Z,99.9
2023-03-27T06:30:00.158Z,99.9
2023-03-27T06:35:00.134Z,99.9
2023-03-27T06:40:00.117Z,99.9
2023-03-27T06:45:00.131Z,99.9
2023-03-27T06:50:00.143Z,99.9
2023-03-27T06:55:00.160Z,99.9
2023-03-27T07:00:02.209Z,96.6
2023-03-27T07:05:04.577Z,95.3
2023-03-27T07:10:00.137Z,95.2
2023-03-27T07:15:00.112Z,92.9
2023-03-27T07:20:00.140Z,88.6
2023-03-27T07:25:00.125Z,85.8
2023-03-27T07:30:00.159Z,84.1
2023-03-27T07:35:00.134Z,80.2
2023-03-27T07:40:00.114Z,82.2
2023-03-27T07:45:01.024Z,71.5
2023-03-27T07:50:00.106Z,69.2
2023-03-27T07:55:00.098Z,64.2
2023-03-27T08:00:00.188Z,63.7
2023-03-27T08:05:00.233Z,71
2023-03-27T08:10:00.114Z,70.5
2023-03-27T08:15:00.301Z,66.7
2023-03-27T08:20:00.100Z,55
2023-03-27T08:25:00.137Z,54.2
2023-03-27T08:30:00.173Z,51
2023-03-27T08:35:00.140Z,59.3
2023-03-27T08:40:00.147Z,60.3
2023-03-27T08:45:00.124Z,58
2023-03-27T08:50:00.132Z,51
2023-03-27T08:55:00.125Z,52.7
2023-03-27T09:00:00.131Z,50.6
2023-03-27T09:05:00.162Z,61.1
2023-03-27T09:10:00.130Z,55.8
2023-03-27T09:15:00.085Z,51.7
2023-03-27T09:20:00.137Z,61.3
2023-03-27T09:25:00.152Z,63.7
2023-03-27T09:30:05.129Z,53.5
2023-03-27T09:35:00.107Z,58.7
2023-03-27T09:40:00.153Z,64.6
2023-03-27T09:45:00.129Z,57.5
2023-03-27T09:50:00.128Z,60.4
2023-03-27T09:55:00.111Z,48.5
2023-03-27T10:00:00.137Z,54.1
2023-03-27T10:05:00.192Z,53.3
2023-03-27T10:10:00.116Z,50.8
2023-03-27T10:15:01.566Z,53.6
2023-03-27T10:20:00.139Z,58.6
2023-03-27T10:25:00.129Z,55.7
2023-03-27T10:30:00.183Z,53.6
2023-03-27T10:35:00.204Z,62.3
2023-03-27T10:40:00.153Z,66.9
2023-03-27T10:45:00.171Z,56.2
2023-03-27T10:50:00.106Z,48.5
2023-03-27T10:55:00.128Z,55
2023-03-27T11:00:00.123Z,64.8
2023-03-27T11:05:00.136Z,72.2
2023-03-27T11:10:00.099Z,68.5
2023-03-27T11:15:00.110Z,58.7
2023-03-27T11:20:00.116Z,51.1
2023-03-27T11:25:00.166Z,58
2023-03-27T11:30:00.131Z,62.6
2023-03-27T11:35:01.405Z,65
2023-03-27T11:40:00.127Z,67.3
2023-03-27T11:45:00.129Z,63.9
2023-03-27T11:50:00.120Z,60.4
2023-03-27T11:55:00.126Z,64.2
2023-03-27T12:00:00.199Z,66
2023-03-27T12:05:00.135Z,56.7
2023-03-27T12:10:00.193Z,53.4
2023-03-27T12:15:00.129Z,50.6
2023-03-27T12:20:00.119Z,50.7
2023-03-27T12:25:00.375Z,48.3
2023-03-27T12:30:00.110Z,45.7
2023-03-27T12:35:00.110Z,44.6
2023-03-27T12:40:00.116Z,45.8
2023-03-27T12:45:00.156Z,43.9
2023-03-27T12:50:00.114Z,43.3
2023-03-27T12:55:00.116Z,45
2023-03-27T13:00:00.178Z,46.5
2023-03-27T13:05:00.147Z,46.4
2023-03-27T13:10:00.138Z,45.2
2023-03-27T13:15:00.115Z,50.8
2023-03-27T13:20:00.170Z,61.6
2023-03-27T13:25:00.143Z,66.7
2023-03-27T13:30:00.254Z,72.3
2023-03-27T13:35:00.167Z,78.7
2023-03-27T13:40:00.192Z,83.7
2023-03-27T13:45:00.153Z,85
2023-03-27T13:50:00.182Z,85.9
2023-03-27T13:55:00.155Z,85
2023-03-27T14:00:00.161Z,83.2
2023-03-27T14:05:00.413Z,82.7
2023-03-27T14:10:00.159Z,82.6
2023-03-27T14:15:00.218Z,81.3
2023-03-27T14:20:00.128Z,80.6
2023-03-27T14:25:00.175Z,78.3
2023-03-27T14:30:00.142Z,76.8
2023-03-27T14:35:00.133Z,77.3
2023-03-27T14:40:00.134Z,77.6
2023-03-27T14:45:00.109Z,77.1
2023-03-27T14:50:00.145Z,74.7
2023-03-27T14:55:00.155Z,73.1
2023-03-27T15:00:00.183Z,73.3
2023-03-27T15:05:00.121Z,73.7
2023-03-27T15:10:00.190Z,71.8
2023-03-27T15:15:00.120Z,71
2023-03-27T15:20:00.169Z,69.2
2023-03-27T15:25:00.184Z,68.5
2023-03-27T15:30:00.288Z,67.2
2023-03-27T15:35:00.117Z,67.4
2023-03-27T15:40:00.371Z,66.3
2023-03-27T15:45:00.156Z,67.8
2023-03-27T15:50:00.126Z,68.8
2023-03-27T15:55:00.136Z,69.2
2023-03-27T16:00:00.134Z,69.5
2023-03-27T16:05:00.223Z,71.1
2023-03-27T16:10:00.118Z,71.8
2023-03-27T16:15:00.203Z,72.9
2023-03-27T16:20:00.107Z,72.5
2023-03-27T16:25:00.194Z,70.6
2023-03-27T16:30:00.148Z,70.1
2023-03-27T16:35:00.086Z,70.3
2023-03-27T16:40:00.228Z,70
2023-03-27T16:45:00.141Z,70.1
2023-03-27T16:55:00.117Z,71.3
2023-03-27T17:00:00.130Z,72.6
2023-03-27T17:05:00.158Z,72.6
2023-03-27T17:10:00.136Z,74.6
2023-03-27T17:15:00.135Z,77.9
2023-03-27T17:20:00.113Z,80.8
2023-03-27T17:25:00.182Z,79.6
2023-03-27T17:30:00.159Z,81.2
2023-03-27T17:35:00.090Z,82.7
2023-03-27T17:40:00.168Z,90.9
2023-03-27T17:45:00.161Z,87.6
2023-03-27T17:50:00.125Z,90
2023-03-27T17:55:00.188Z,92.3
2023-03-27T18:00:00.127Z,93.3
2023-03-27T18:05:00.121Z,94.2
2023-03-27T18:10:00.179Z,95.7
2023-03-27T18:15:00.108Z,96.2
2023-03-27T18:20:00.127Z,98.7
2023-03-27T18:25:00.158Z,99.9
2023-03-27T18:30:00.112Z,96.6
2023-03-27T18:35:00.142Z,98.4
2023-03-27T18:40:00.116Z,95.8
2023-03-27T18:50:00.133Z,93.4
2023-03-27T18:55:00.101Z,95.4
2023-03-27T19:00:00.105Z,95.6
2023-03-27T19:05:00.116Z,93
2023-03-27T19:10:00.212Z,92.6
2023-03-27T19:15:06.731Z,93.9
2023-03-27T19:20:00.143Z,94.2
2023-03-27T19:25:00.108Z,93.4
2023-03-27T19:30:00.156Z,92.4
2023-03-27T19:35:00.145Z,92.8
2023-03-27T19:40:00.147Z,93.3
2023-03-27T19:45:00.100Z,94.6
2023-03-27T19:50:00.150Z,95.8
2023-03-27T19:55:00.121Z,97
2023-03-27T20:00:00.123Z,96
2023-03-27T20:05:00.092Z,95.3
2023-03-27T20:10:00.133Z,95.8
2023-03-27T20:15:10.341Z,94.3
2023-03-27T20:20:00.180Z,94.6
2023-03-27T20:25:00.118Z,94.1
2023-03-27T20:30:00.133Z,93.9
2023-03-27T20:35:03.329Z,96.9
2023-03-27T20:40:00.123Z,90.9
2023-03-27T20:45:00.141Z,90.5
2023-03-27T20:50:00.175Z,90.4
2023-03-27T20:55:00.138Z,90.4
2023-03-27T21:00:00.157Z,90.6
2023-03-27T21:05:00.133Z,90.7
2023-03-27T21:10:00.207Z,90.9
2023-03-27T21:15:00.132Z,91
2023-03-27T21:20:00.158Z,91.2
2023-03-27T21:25:00.124Z,91.4
2023-03-27T21:30:00.147Z,91.5
2023-03-27T21:35:00.106Z,91.6
2023-03-27T21:40:00.161Z,91.8
2023-03-27T21:45:00.158Z,91.9
2023-03-27T21:50:00.178Z,92
2023-03-27T21:55:03.104Z,92.1
2023-03-27T22:00:00.174Z,92.1
2023-03-27T22:05:00.263Z,92.2
2023-03-27T22:10:00.171Z,92.3
2023-03-27T22:15:00.117Z,92.5
2023-03-27T22:20:00.137Z,92.8
2023-03-27T22:25:00.163Z,93
2023-03-27T22:30:00.185Z,93
2023-03-27T22:35:00.127Z,93
2023-03-27T22:40:00.184Z,92.9
2023-03-27T22:45:00.120Z,92.6
2023-03-27T22:50:00.174Z,92.1
2023-03-27T22:55:00.131Z,91.7
2023-03-27T23:00:00.158Z,91.4
2023-03-27T23:05:00.132Z,90.9
2023-03-27T23:10:00.136Z,90.5
2023-03-27T23:15:00.145Z,90.3
2023-03-27T23:20:00.119Z,90.3
2023-03-27T23:25:00.123Z,90.5
2023-03-27T23:30:00.158Z,90.4
2023-03-27T23:35:00.098Z,90.2
2023-03-27T23:40:00.111Z,89.9
2023-03-27T23:45:00.121Z,89
2023-03-27T23:50:00.190Z,88.6
2023-03-27T23:55:00.130Z,88.5
